sensor_id;sensor_type;location;lat;lon;timestamp;P1;durP1;ratioP1;P2;durP2;ratioP2
9102;SDS011;4587;51.434;6.788;2022-11-18T00:00:55;5.43;;;2.30;;
9102;SDS011;4587;51.434;6.788;2022-11-18T00:03:21;3.10;;;2.03;;
9102;SDS011;4587;51.434;6.788;2022-11-18T00:05:53;8.73;;;2.40;;
9102;SDS011;4587;51.434;6.788;2022-11-18T00:08:20;6.00;;;2.23;;
9102;SDS011;4587;51.434;6.788;2022-11-18T00:10:46;6.87;;;3.23;;
9102;SDS011;4587;51.434;6.788;2022-11-18T00:13:12;5.20;;;2.47;;
9102;SDS011;4587;51.434;6.788;2022-11-18T00:16:00;6.13;;;3.43;;
9102;SDS011;4587;51.434;6.788;2022-11-18T00:18:27;6.93;;;3.10;;
9102;SDS011;4587;51.434;6.788;2022-11-18T00:20:53;6.47;;;2.50;;
9102;SDS011;4587;51.434;6.788;2022-11-18T00:23:18;4.40;;;2.33;;
9102;SDS011;4587;51.434;6.788;2022-11-18T00:25:44;6.67;;;2.50;;
9102;SDS011;4587;51.434;6.788;2022-11-18T00:28:09;4.80;;;2.17;;
9102;SDS011;4587;51.434;6.788;2022-11-18T00:30:35;6.57;;;2.50;;
9102;SDS011;4587;51.434;6.788;2022-11-18T00:33:00;4.90;;;2.30;;
9102;SDS011;4587;51.434;6.788;2022-11-18T00:35:26;7.40;;;2.00;;
9102;SDS011;4587;51.434;6.788;2022-11-18T00:37:51;5.17;;;2.17;;
9102;SDS011;4587;51.434;6.788;2022-11-18T00:40:17;3.73;;;2.00;;
9102;SDS011;4587;51.434;6.788;2022-11-18T00:42:42;6.30;;;2.57;;
9102;SDS011;4587;51.434;6.788;2022-11-18T00:45:20;5.13;;;1.83;;
9102;SDS011;4587;51.434;6.788;2022-11-18T00:47:47;5.00;;;1.87;;
9102;SDS011;4587;51.434;6.788;2022-11-18T00:50:13;4.63;;;2.10;;
9102;SDS011;4587;51.434;6.788;2022-11-18T00:52:39;8.23;;;2.90;;
9102;SDS011;4587;51.434;6.788;2022-11-18T00:55:04;4.97;;;1.90;;
9102;SDS011;4587;51.434;6.788;2022-11-18T00:57:30;5.20;;;2.13;;
9102;SDS011;4587;51.434;6.788;2022-11-18T00:59:56;3.80;;;1.63;;
9102;SDS011;4587;51.434;6.788;2022-11-18T01:02:21;4.87;;;1.90;;
9102;SDS011;4587;51.434;6.788;2022-11-18T01:04:47;4.53;;;2.10;;
9102;SDS011;4587;51.434;6.788;2022-11-18T01:07:12;5.53;;;1.80;;
9102;SDS011;4587;51.434;6.788;2022-11-18T01:09:38;4.03;;;2.03;;
9102;SDS011;4587;51.434;6.788;2022-11-18T01:12:03;5.00;;;2.40;;
9102;SDS011;4587;51.434;6.788;2022-11-18T01:14:48;4.83;;;2.00;;
9102;SDS011;4587;51.434;6.788;2022-11-18T01:17:13;4.67;;;1.77;;
9102;SDS011;4587;51.434;6.788;2022-11-18T01:19:39;5.23;;;2.10;;
9102;SDS011;4587;51.434;6.788;2022-11-18T01:22:04;6.17;;;2.50;;
9102;SDS011;4587;51.434;6.788;2022-11-18T01:24:31;6.43;;;2.00;;
9102;SDS011;4587;51.434;6.788;2022-11-18T01:26:57;4.90;;;1.70;;
9102;SDS011;4587;51.434;6.788;2022-11-18T01:29:24;4.83;;;1.93;;
9102;SDS011;4587;51.434;6.788;2022-11-18T01:31:49;4.37;;;1.90;;
9102;SDS011;4587;51.434;6.788;2022-11-18T01:34:15;5.70;;;2.10;;
9102;SDS011;4587;51.434;6.788;2022-11-18T01:36:40;3.57;;;1.50;;
9102;SDS011;4587;51.434;6.788;2022-11-18T01:39:06;6.30;;;1.77;;
9102;SDS011;4587;51.434;6.788;2022-11-18T01:41:31;3.57;;;2.17;;
9102;SDS011;4587;51.434;6.788;2022-11-18T01:43:59;3.30;;;1.53;;
9102;SDS011;4587;51.434;6.788;2022-11-18T01:46:27;3.83;;;1.83;;
9102;SDS011;4587;51.434;6.788;2022-11-18T01:48:56;5.67;;;2.00;;
9102;SDS011;4587;51.434;6.788;2022-11-18T01:51:30;5.70;;;2.07;;
9102;SDS011;4587;51.434;6.788;2022-11-18T01:54:02;4.20;;;1.97;;
9102;SDS011;4587;51.434;6.788;2022-11-18T01:56:37;3.33;;;1.70;;
9102;SDS011;4587;51.434;6.788;2022-11-18T01:59:08;6.77;;;2.10;;
9102;SDS011;4587;51.434;6.788;2022-11-18T02:01:36;4.77;;;1.90;;
9102;SDS011;4587;51.434;6.788;2022-11-18T02:04:02;5.90;;;1.83;;
9102;SDS011;4587;51.434;6.788;2022-11-18T02:06:27;5.90;;;2.00;;
9102;SDS011;4587;51.434;6.788;2022-11-18T02:08:53;4.50;;;2.10;;
9102;SDS011;4587;51.434;6.788;2022-11-18T02:11:19;3.47;;;1.60;;
9102;SDS011;4587;51.434;6.788;2022-11-18T02:14:05;4.37;;;1.93;;
9102;SDS011;4587;51.434;6.788;2022-11-18T02:16:45;5.57;;;1.90;;
9102;SDS011;4587;51.434;6.788;2022-11-18T02:30:57;5.20;;;2.10;;
9102;SDS011;4587;51.434;6.788;2022-11-18T02:36:28;4.73;;;1.67;;
9102;SDS011;4587;51.434;6.788;2022-11-18T02:39:07;3.63;;;1.70;;
9102;SDS011;4587;51.434;6.788;2022-11-18T02:41:40;4.73;;;1.60;;
9102;SDS011;4587;51.434;6.788;2022-11-18T02:44:08;3.30;;;1.80;;
9102;SDS011;4587;51.434;6.788;2022-11-18T02:46:37;3.93;;;1.60;;
9102;SDS011;4587;51.434;6.788;2022-11-18T02:49:20;6.63;;;2.10;;
9102;SDS011;4587;51.434;6.788;2022-11-18T02:51:51;6.10;;;2.20;;
9102;SDS011;4587;51.434;6.788;2022-11-18T02:54:19;4.93;;;2.10;;
9102;SDS011;4587;51.434;6.788;2022-11-18T02:56:46;4.57;;;1.70;;
9102;SDS011;4587;51.434;6.788;2022-11-18T02:59:18;5.07;;;1.80;;
9102;SDS011;4587;51.434;6.788;2022-11-18T03:01:45;6.03;;;2.03;;
9102;SDS011;4587;51.434;6.788;2022-11-18T03:04:12;6.87;;;2.20;;
9102;SDS011;4587;51.434;6.788;2022-11-18T03:06:39;5.00;;;2.20;;
9102;SDS011;4587;51.434;6.788;2022-11-18T03:09:14;4.97;;;2.00;;
9102;SDS011;4587;51.434;6.788;2022-11-18T03:19:58;7.80;;;2.23;;
9102;SDS011;4587;51.434;6.788;2022-11-18T03:22:39;4.27;;;2.00;;
9102;SDS011;4587;51.434;6.788;2022-11-18T03:25:13;3.67;;;1.60;;
9102;SDS011;4587;51.434;6.788;2022-11-18T03:27:59;5.00;;;2.30;;
9102;SDS011;4587;51.434;6.788;2022-11-18T03:30:34;5.17;;;1.90;;
9102;SDS011;4587;51.434;6.788;2022-11-18T03:33:11;5.47;;;2.17;;
9102;SDS011;4587;51.434;6.788;2022-11-18T03:35:42;3.90;;;2.07;;
9102;SDS011;4587;51.434;6.788;2022-11-18T03:38:12;5.43;;;2.10;;
9102;SDS011;4587;51.434;6.788;2022-11-18T03:40:43;5.17;;;2.20;;
9102;SDS011;4587;51.434;6.788;2022-11-18T03:43:12;6.13;;;2.27;;
9102;SDS011;4587;51.434;6.788;2022-11-18T03:45:44;4.00;;;2.10;;
9102;SDS011;4587;51.434;6.788;2022-11-18T03:48:17;5.47;;;2.03;;
9102;SDS011;4587;51.434;6.788;2022-11-18T03:50:54;5.53;;;2.00;;
9102;SDS011;4587;51.434;6.788;2022-11-18T03:53:25;4.77;;;2.10;;
9102;SDS011;4587;51.434;6.788;2022-11-18T03:55:57;5.00;;;2.20;;
9102;SDS011;4587;51.434;6.788;2022-11-18T03:58:36;4.53;;;2.13;;
9102;SDS011;4587;51.434;6.788;2022-11-18T04:01:10;6.47;;;2.23;;
9102;SDS011;4587;51.434;6.788;2022-11-18T04:03:41;6.63;;;2.03;;
9102;SDS011;4587;51.434;6.788;2022-11-18T04:06:08;6.10;;;2.10;;
9102;SDS011;4587;51.434;6.788;2022-11-18T04:08:55;3.90;;;1.60;;
9102;SDS011;4587;51.434;6.788;2022-11-18T04:11:29;5.23;;;2.20;;
9102;SDS011;4587;51.434;6.788;2022-11-18T04:14:18;5.57;;;2.10;;
9102;SDS011;4587;51.434;6.788;2022-11-18T04:16:48;4.93;;;2.10;;
9102;SDS011;4587;51.434;6.788;2022-11-18T04:19:17;8.03;;;2.20;;
9102;SDS011;4587;51.434;6.788;2022-11-18T04:21:43;5.87;;;2.03;;
9102;SDS011;4587;51.434;6.788;2022-11-18T04:24:09;4.40;;;2.07;;
9102;SDS011;4587;51.434;6.788;2022-11-18T04:26:34;4.93;;;2.20;;
9102;SDS011;4587;51.434;6.788;2022-11-18T04:29:00;5.50;;;2.37;;
9102;SDS011;4587;51.434;6.788;2022-11-18T04:31:25;3.33;;;2.00;;
9102;SDS011;4587;51.434;6.788;2022-11-18T04:33:51;5.07;;;1.93;;
9102;SDS011;4587;51.434;6.788;2022-11-18T04:36:16;4.30;;;1.77;;
9102;SDS011;4587;51.434;6.788;2022-11-18T04:38:43;4.70;;;1.90;;
9102;SDS011;4587;51.434;6.788;2022-11-18T04:41:09;5.43;;;2.20;;
9102;SDS011;4587;51.434;6.788;2022-11-18T04:43:35;7.83;;;2.10;;
9102;SDS011;4587;51.434;6.788;2022-11-18T04:46:00;6.87;;;2.00;;
9102;SDS011;4587;51.434;6.788;2022-11-18T04:48:26;5.27;;;2.07;;
9102;SDS011;4587;51.434;6.788;2022-11-18T04:50:51;6.10;;;2.20;;
9102;SDS011;4587;51.434;6.788;2022-11-18T04:53:17;4.73;;;2.13;;
9102;SDS011;4587;51.434;6.788;2022-11-18T04:55:42;6.67;;;2.30;;
9102;SDS011;4587;51.434;6.788;2022-11-18T04:58:08;5.30;;;2.00;;
9102;SDS011;4587;51.434;6.788;2022-11-18T05:00:33;4.53;;;2.00;;
9102;SDS011;4587;51.434;6.788;2022-11-18T05:02:59;3.63;;;1.80;;
9102;SDS011;4587;51.434;6.788;2022-11-18T05:05:24;5.00;;;1.90;;
9102;SDS011;4587;51.434;6.788;2022-11-18T05:07:50;6.67;;;2.00;;
9102;SDS011;4587;51.434;6.788;2022-11-18T05:10:16;5.07;;;2.00;;
9102;SDS011;4587;51.434;6.788;2022-11-18T05:12:41;4.77;;;2.17;;
9102;SDS011;4587;51.434;6.788;2022-11-18T05:15:13;5.97;;;2.30;;
9102;SDS011;4587;51.434;6.788;2022-11-18T05:17:39;5.27;;;2.10;;
9102;SDS011;4587;51.434;6.788;2022-11-18T05:20:05;7.67;;;2.40;;
9102;SDS011;4587;51.434;6.788;2022-11-18T05:22:31;6.63;;;2.23;;
9102;SDS011;4587;51.434;6.788;2022-11-18T05:24:57;7.07;;;2.53;;
9102;SDS011;4587;51.434;6.788;2022-11-18T05:27:22;7.00;;;2.40;;
9102;SDS011;4587;51.434;6.788;2022-11-18T05:29:48;8.37;;;2.60;;
9102;SDS011;4587;51.434;6.788;2022-11-18T05:32:13;7.93;;;2.60;;
9102;SDS011;4587;51.434;6.788;2022-11-18T05:34:40;8.13;;;2.57;;
9102;SDS011;4587;51.434;6.788;2022-11-18T05:37:06;5.83;;;2.70;;
9102;SDS011;4587;51.434;6.788;2022-11-18T05:39:32;7.07;;;2.60;;
9102;SDS011;4587;51.434;6.788;2022-11-18T05:41:58;5.73;;;2.63;;
9102;SDS011;4587;51.434;6.788;2022-11-18T05:44:43;4.70;;;2.00;;
9102;SDS011;4587;51.434;6.788;2022-11-18T05:47:09;6.23;;;2.40;;
9102;SDS011;4587;51.434;6.788;2022-11-18T05:49:34;6.03;;;2.30;;
9102;SDS011;4587;51.434;6.788;2022-11-18T05:52:00;6.93;;;2.63;;
9102;SDS011;4587;51.434;6.788;2022-11-18T05:54:25;5.53;;;2.37;;
9102;SDS011;4587;51.434;6.788;2022-11-18T05:56:51;3.87;;;2.30;;
9102;SDS011;4587;51.434;6.788;2022-11-18T05:59:17;5.13;;;2.10;;
9102;SDS011;4587;51.434;6.788;2022-11-18T06:06:54;5.83;;;2.50;;
9102;SDS011;4587;51.434;6.788;2022-11-18T06:09:29;9.50;;;2.93;;
9102;SDS011;4587;51.434;6.788;2022-11-18T06:11:59;5.83;;;2.87;;
9102;SDS011;4587;51.434;6.788;2022-11-18T06:14:33;6.20;;;2.60;;
9102;SDS011;4587;51.434;6.788;2022-11-18T06:17:04;5.90;;;2.43;;
9102;SDS011;4587;51.434;6.788;2022-11-18T06:19:38;6.07;;;2.53;;
9102;SDS011;4587;51.434;6.788;2022-11-18T06:22:04;7.17;;;2.90;;
9102;SDS011;4587;51.434;6.788;2022-11-18T06:24:30;7.40;;;3.17;;
9102;SDS011;4587;51.434;6.788;2022-11-18T06:26:56;6.27;;;2.63;;
9102;SDS011;4587;51.434;6.788;2022-11-18T06:29:23;6.93;;;2.93;;
9102;SDS011;4587;51.434;6.788;2022-11-18T06:31:48;5.27;;;3.07;;
9102;SDS011;4587;51.434;6.788;2022-11-18T06:34:14;7.60;;;2.97;;
9102;SDS011;4587;51.434;6.788;2022-11-18T06:36:39;8.07;;;2.70;;
9102;SDS011;4587;51.434;6.788;2022-11-18T06:39:05;7.43;;;3.03;;
9102;SDS011;4587;51.434;6.788;2022-11-18T06:41:32;6.13;;;3.03;;
9102;SDS011;4587;51.434;6.788;2022-11-18T06:43:57;6.40;;;2.80;;
9102;SDS011;4587;51.434;6.788;2022-11-18T06:46:23;6.10;;;3.07;;
9102;SDS011;4587;51.434;6.788;2022-11-18T06:49:08;7.00;;;3.10;;
9102;SDS011;4587;51.434;6.788;2022-11-18T06:51:33;6.83;;;3.00;;
9102;SDS011;4587;51.434;6.788;2022-11-18T06:53:59;7.23;;;3.07;;
9102;SDS011;4587;51.434;6.788;2022-11-18T06:56:25;5.70;;;2.93;;
9102;SDS011;4587;51.434;6.788;2022-11-18T06:58:54;4.70;;;2.50;;
9102;SDS011;4587;51.434;6.788;2022-11-18T07:01:24;7.77;;;3.20;;
9102;SDS011;4587;51.434;6.788;2022-11-18T07:03:51;7.90;;;3.47;;
9102;SDS011;4587;51.434;6.788;2022-11-18T07:06:18;6.73;;;2.97;;
9102;SDS011;4587;51.434;6.788;2022-11-18T07:08:49;8.07;;;2.90;;
9102;SDS011;4587;51.434;6.788;2022-11-18T07:11:16;8.60;;;3.07;;
9102;SDS011;4587;51.434;6.788;2022-11-18T07:13:44;9.57;;;3.20;;
9102;SDS011;4587;51.434;6.788;2022-11-18T07:16:17;6.80;;;2.70;;
9102;SDS011;4587;51.434;6.788;2022-11-18T07:18:45;7.40;;;2.97;;
9102;SDS011;4587;51.434;6.788;2022-11-18T07:21:12;8.33;;;3.40;;
9102;SDS011;4587;51.434;6.788;2022-11-18T07:23:39;8.97;;;3.27;;
9102;SDS011;4587;51.434;6.788;2022-11-18T07:26:05;7.03;;;2.90;;
9102;SDS011;4587;51.434;6.788;2022-11-18T07:28:31;5.00;;;3.10;;
9102;SDS011;4587;51.434;6.788;2022-11-18T07:33:26;8.07;;;3.27;;
9102;SDS011;4587;51.434;6.788;2022-11-18T07:35:52;10.83;;;3.50;;
9102;SDS011;4587;51.434;6.788;2022-11-18T07:38:17;7.23;;;3.37;;
9102;SDS011;4587;51.434;6.788;2022-11-18T07:40:43;7.07;;;3.03;;
9102;SDS011;4587;51.434;6.788;2022-11-18T07:43:08;7.53;;;3.03;;
9102;SDS011;4587;51.434;6.788;2022-11-18T07:45:34;7.80;;;3.00;;
9102;SDS011;4587;51.434;6.788;2022-11-18T07:48:00;7.73;;;3.03;;
9102;SDS011;4587;51.434;6.788;2022-11-18T07:50:25;7.40;;;2.97;;
9102;SDS011;4587;51.434;6.788;2022-11-18T07:52:53;7.83;;;3.33;;
9102;SDS011;4587;51.434;6.788;2022-11-18T07:55:20;9.83;;;3.40;;
9102;SDS011;4587;51.434;6.788;2022-11-18T07:57:45;8.67;;;3.30;;
9102;SDS011;4587;51.434;6.788;2022-11-18T08:00:11;9.10;;;3.57;;
9102;SDS011;4587;51.434;6.788;2022-11-18T08:02:37;8.20;;;3.47;;
9102;SDS011;4587;51.434;6.788;2022-11-18T08:05:03;8.90;;;3.07;;
9102;SDS011;4587;51.434;6.788;2022-11-18T08:07:28;6.23;;;3.00;;
9102;SDS011;4587;51.434;6.788;2022-11-18T08:09:54;8.03;;;2.90;;
9102;SDS011;4587;51.434;6.788;2022-11-18T08:12:19;7.93;;;3.47;;
9102;SDS011;4587;51.434;6.788;2022-11-18T08:14:45;8.37;;;3.23;;
9102;SDS011;4587;51.434;6.788;2022-11-18T08:17:10;6.83;;;3.40;;
9102;SDS011;4587;51.434;6.788;2022-11-18T08:19:36;7.40;;;3.50;;
9102;SDS011;4587;51.434;6.788;2022-11-18T08:22:01;6.57;;;3.60;;
9102;SDS011;4587;51.434;6.788;2022-11-18T08:24:27;6.63;;;3.50;;
9102;SDS011;4587;51.434;6.788;2022-11-18T08:26:53;8.00;;;3.50;;
9102;SDS011;4587;51.434;6.788;2022-11-18T08:29:18;8.70;;;3.67;;
9102;SDS011;4587;51.434;6.788;2022-11-18T08:31:44;6.33;;;3.30;;
9102;SDS011;4587;51.434;6.788;2022-11-18T08:34:09;8.30;;;3.57;;
9102;SDS011;4587;51.434;6.788;2022-11-18T08:36:36;8.60;;;3.00;;
9102;SDS011;4587;51.434;6.788;2022-11-18T08:39:03;9.20;;;3.50;;
9102;SDS011;4587;51.434;6.788;2022-11-18T08:41:38;8.30;;;3.27;;
9102;SDS011;4587;51.434;6.788;2022-11-18T08:44:05;7.47;;;3.20;;
9102;SDS011;4587;51.434;6.788;2022-11-18T08:46:32;5.43;;;3.23;;
9102;SDS011;4587;51.434;6.788;2022-11-18T08:48:58;8.90;;;4.00;;
9102;SDS011;4587;51.434;6.788;2022-11-18T08:51:25;9.97;;;3.87;;
9102;SDS011;4587;51.434;6.788;2022-11-18T08:53:50;6.57;;;3.67;;
9102;SDS011;4587;51.434;6.788;2022-11-18T08:56:19;7.23;;;3.97;;
9102;SDS011;4587;51.434;6.788;2022-11-18T08:58:46;7.13;;;3.67;;
9102;SDS011;4587;51.434;6.788;2022-11-18T09:01:12;10.17;;;4.33;;
9102;SDS011;4587;51.434;6.788;2022-11-18T09:03:37;5.80;;;3.13;;
9102;SDS011;4587;51.434;6.788;2022-11-18T09:06:13;8.17;;;4.07;;
9102;SDS011;4587;51.434;6.788;2022-11-18T09:08:41;8.10;;;4.20;;
9102;SDS011;4587;51.434;6.788;2022-11-18T09:11:08;8.20;;;4.23;;
9102;SDS011;4587;51.434;6.788;2022-11-18T09:13:35;7.43;;;3.70;;
9102;SDS011;4587;51.434;6.788;2022-11-18T09:16:01;7.57;;;3.57;;
9102;SDS011;4587;51.434;6.788;2022-11-18T09:18:27;10.93;;;3.73;;
9102;SDS011;4587;51.434;6.788;2022-11-18T09:20:57;7.87;;;3.67;;
9102;SDS011;4587;51.434;6.788;2022-11-18T09:23:28;7.20;;;3.60;;
9102;SDS011;4587;51.434;6.788;2022-11-18T09:25:59;7.87;;;3.37;;
9102;SDS011;4587;51.434;6.788;2022-11-18T09:28:27;8.67;;;3.37;;
9102;SDS011;4587;51.434;6.788;2022-11-18T09:30:53;7.57;;;3.23;;
9102;SDS011;4587;51.434;6.788;2022-11-18T09:33:19;7.63;;;3.07;;
9102;SDS011;4587;51.434;6.788;2022-11-18T09:35:45;6.53;;;3.30;;
9102;SDS011;4587;51.434;6.788;2022-11-18T09:38:11;7.20;;;3.10;;
9102;SDS011;4587;51.434;6.788;2022-11-18T09:40:40;5.00;;;2.80;;
9102;SDS011;4587;51.434;6.788;2022-11-18T09:46:37;8.73;;;3.37;;
9102;SDS011;4587;51.434;6.788;2022-11-18T09:49:13;10.37;;;3.70;;
9102;SDS011;4587;51.434;6.788;2022-11-18T09:52:04;8.53;;;3.57;;
9102;SDS011;4587;51.434;6.788;2022-11-18T09:54:50;8.33;;;3.10;;
9102;SDS011;4587;51.434;6.788;2022-11-18T09:57:19;9.10;;;3.60;;
9102;SDS011;4587;51.434;6.788;2022-11-18T09:59:55;9.67;;;3.30;;
9102;SDS011;4587;51.434;6.788;2022-11-18T10:05:26;8.20;;;3.33;;
9102;SDS011;4587;51.434;6.788;2022-11-18T10:10:48;7.57;;;3.13;;
9102;SDS011;4587;51.434;6.788;2022-11-18T10:21:49;11.43;;;3.97;;
9102;SDS011;4587;51.434;6.788;2022-11-18T10:24:26;9.93;;;3.97;;
9102;SDS011;4587;51.434;6.788;2022-11-18T10:27:07;12.43;;;3.90;;
9102;SDS011;4587;51.434;6.788;2022-11-18T10:29:37;7.17;;;3.67;;
9102;SDS011;4587;51.434;6.788;2022-11-18T10:32:04;5.93;;;3.70;;
9102;SDS011;4587;51.434;6.788;2022-11-18T10:34:32;8.10;;;3.90;;
9102;SDS011;4587;51.434;6.788;2022-11-18T10:39:27;9.33;;;3.70;;
9102;SDS011;4587;51.434;6.788;2022-11-18T10:41:56;9.70;;;4.47;;
9102;SDS011;4587;51.434;6.788;2022-11-18T10:44:37;6.67;;;3.30;;
9102;SDS011;4587;51.434;6.788;2022-11-18T10:47:15;7.77;;;3.60;;
9102;SDS011;4587;51.434;6.788;2022-11-18T10:49:47;10.67;;;3.50;;
9102;SDS011;4587;51.434;6.788;2022-11-18T10:52:13;9.00;;;3.30;;
9102;SDS011;4587;51.434;6.788;2022-11-18T10:54:39;9.10;;;3.37;;
9102;SDS011;4587;51.434;6.788;2022-11-18T10:59:44;9.00;;;3.20;;
9102;SDS011;4587;51.434;6.788;2022-11-18T11:04:45;8.00;;;3.20;;
9102;SDS011;4587;51.434;6.788;2022-11-18T11:07:25;6.17;;;2.43;;
9102;SDS011;4587;51.434;6.788;2022-11-18T11:10:05;5.53;;;2.30;;
9102;SDS011;4587;51.434;6.788;2022-11-18T11:12:43;8.37;;;2.87;;
9102;SDS011;4587;51.434;6.788;2022-11-18T11:17:55;5.90;;;2.90;;
9102;SDS011;4587;51.434;6.788;2022-11-18T11:20:43;7.33;;;2.90;;
9102;SDS011;4587;51.434;6.788;2022-11-18T11:23:13;8.97;;;2.77;;
9102;SDS011;4587;51.434;6.788;2022-11-18T11:25:42;9.33;;;2.90;;
9102;SDS011;4587;51.434;6.788;2022-11-18T11:28:15;6.73;;;3.30;;
9102;SDS011;4587;51.434;6.788;2022-11-18T11:36:50;12.10;;;3.23;;
9102;SDS011;4587;51.434;6.788;2022-11-18T11:45:32;10.03;;;3.07;;
9102;SDS011;4587;51.434;6.788;2022-11-18T11:48:12;6.07;;;2.40;;
9102;SDS011;4587;51.434;6.788;2022-11-18T11:50:54;5.73;;;2.43;;
9102;SDS011;4587;51.434;6.788;2022-11-18T12:04:29;6.20;;;2.17;;
9102;SDS011;4587;51.434;6.788;2022-11-18T12:07:29;7.47;;;2.27;;
9102;SDS011;4587;51.434;6.788;2022-11-18T12:20:44;6.87;;;2.53;;
9102;SDS011;4587;51.434;6.788;2022-11-18T12:23:22;7.43;;;2.73;;
9102;SDS011;4587;51.434;6.788;2022-11-18T12:25:54;8.03;;;2.67;;
9102;SDS011;4587;51.434;6.788;2022-11-18T12:28:27;5.80;;;2.30;;
9102;SDS011;4587;51.434;6.788;2022-11-18T12:33:49;7.53;;;2.33;;
9102;SDS011;4587;51.434;6.788;2022-11-18T12:36:24;10.10;;;3.00;;
9102;SDS011;4587;51.434;6.788;2022-11-18T12:38:51;7.67;;;2.00;;
9102;SDS011;4587;51.434;6.788;2022-11-18T12:44:46;6.87;;;2.13;;
9102;SDS011;4587;51.434;6.788;2022-11-18T12:47:54;7.83;;;2.10;;
9102;SDS011;4587;51.434;6.788;2022-11-18T12:50:08;4.53;;;1.80;;
9102;SDS011;4587;51.434;6.788;2022-11-18T12:55:10;8.27;;;2.40;;
9102;SDS011;4587;51.434;6.788;2022-11-18T12:57:40;7.80;;;2.17;;
9102;SDS011;4587;51.434;6.788;2022-11-18T13:02:50;6.60;;;2.23;;
9102;SDS011;4587;51.434;6.788;2022-11-18T13:05:23;7.00;;;2.07;;
9102;SDS011;4587;51.434;6.788;2022-11-18T13:07:52;8.93;;;2.40;;
9102;SDS011;4587;51.434;6.788;2022-11-18T13:10:48;11.50;;;3.17;;
9102;SDS011;4587;51.434;6.788;2022-11-18T13:13:39;8.17;;;2.37;;
9102;SDS011;4587;51.434;6.788;2022-11-18T13:16:19;7.00;;;2.00;;
9102;SDS011;4587;51.434;6.788;2022-11-18T13:19:07;9.73;;;2.47;;
9102;SDS011;4587;51.434;6.788;2022-11-18T13:21:33;10.40;;;2.10;;
9102;SDS011;4587;51.434;6.788;2022-11-18T13:24:18;5.07;;;2.13;;
9102;SDS011;4587;51.434;6.788;2022-11-18T13:26:47;7.43;;;2.07;;
9102;SDS011;4587;51.434;6.788;2022-11-18T13:29:29;8.03;;;2.50;;
9102;SDS011;4587;51.434;6.788;2022-11-18T13:32:02;7.30;;;1.97;;
9102;SDS011;4587;51.434;6.788;2022-11-18T13:34:50;7.10;;;2.23;;
9102;SDS011;4587;51.434;6.788;2022-11-18T13:37:18;7.23;;;2.30;;
9102;SDS011;4587;51.434;6.788;2022-11-18T13:39:47;7.63;;;2.23;;
9102;SDS011;4587;51.434;6.788;2022-11-18T13:42:18;4.97;;;1.90;;
9102;SDS011;4587;51.434;6.788;2022-11-18T13:44:55;9.73;;;2.87;;
9102;SDS011;4587;51.434;6.788;2022-11-18T14:00:56;7.40;;;3.10;;
9102;SDS011;4587;51.434;6.788;2022-11-18T14:03:31;9.37;;;3.33;;
9102;SDS011;4587;51.434;6.788;2022-11-18T14:06:00;10.33;;;3.50;;
9102;SDS011;4587;51.434;6.788;2022-11-18T14:11:02;8.43;;;2.70;;
9102;SDS011;4587;51.434;6.788;2022-11-18T14:13:30;11.37;;;3.50;;
9102;SDS011;4587;51.434;6.788;2022-11-18T14:16:02;8.03;;;2.57;;
9102;SDS011;4587;51.434;6.788;2022-11-18T14:18:50;11.63;;;2.93;;
9102;SDS011;4587;51.434;6.788;2022-11-18T14:21:32;11.13;;;2.60;;
9102;SDS011;4587;51.434;6.788;2022-11-18T14:23:59;11.30;;;2.83;;
9102;SDS011;4587;51.434;6.788;2022-11-18T14:26:36;7.27;;;3.00;;
9102;SDS011;4587;51.434;6.788;2022-11-18T14:29:15;8.43;;;2.47;;
9102;SDS011;4587;51.434;6.788;2022-11-18T14:34:58;6.67;;;2.77;;
9102;SDS011;4587;51.434;6.788;2022-11-18T14:37:24;6.80;;;3.10;;
9102;SDS011;4587;51.434;6.788;2022-11-18T14:39:54;11.37;;;2.87;;
9102;SDS011;4587;51.434;6.788;2022-11-18T14:42:20;7.83;;;3.20;;
9102;SDS011;4587;51.434;6.788;2022-11-18T14:44:47;11.37;;;3.17;;
9102;SDS011;4587;51.434;6.788;2022-11-18T14:47:16;7.83;;;3.07;;
9102;SDS011;4587;51.434;6.788;2022-11-18T14:49:47;11.33;;;3.63;;
9102;SDS011;4587;51.434;6.788;2022-11-18T14:52:13;11.60;;;2.90;;
9102;SDS011;4587;51.434;6.788;2022-11-18T14:54:38;10.00;;;3.17;;
9102;SDS011;4587;51.434;6.788;2022-11-18T14:57:04;9.03;;;3.20;;
9102;SDS011;4587;51.434;6.788;2022-11-18T14:59:30;6.43;;;3.00;;
9102;SDS011;4587;51.434;6.788;2022-11-18T15:01:55;13.87;;;4.13;;
9102;SDS011;4587;51.434;6.788;2022-11-18T15:04:22;8.93;;;3.40;;
9102;SDS011;4587;51.434;6.788;2022-11-18T15:06:49;7.97;;;4.40;;
9102;SDS011;4587;51.434;6.788;2022-11-18T15:09:14;9.47;;;4.03;;
9102;SDS011;4587;51.434;6.788;2022-11-18T15:11:40;9.43;;;3.70;;
9102;SDS011;4587;51.434;6.788;2022-11-18T15:14:05;6.33;;;3.30;;
9102;SDS011;4587;51.434;6.788;2022-11-18T15:16:32;9.47;;;3.37;;
9102;SDS011;4587;51.434;6.788;2022-11-18T15:18:59;10.17;;;3.80;;
9102;SDS011;4587;51.434;6.788;2022-11-18T15:21:25;6.63;;;3.63;;
9102;SDS011;4587;51.434;6.788;2022-11-18T15:23:51;7.63;;;3.80;;
9102;SDS011;4587;51.434;6.788;2022-11-18T15:28:53;13.40;;;3.67;;
9102;SDS011;4587;51.434;6.788;2022-11-18T15:31:20;15.03;;;3.20;;
9102;SDS011;4587;51.434;6.788;2022-11-18T15:33:46;9.03;;;3.80;;
9102;SDS011;4587;51.434;6.788;2022-11-18T15:36:19;7.87;;;3.70;;
9102;SDS011;4587;51.434;6.788;2022-11-18T15:38:47;7.10;;;3.23;;
9102;SDS011;4587;51.434;6.788;2022-11-18T15:41:23;9.73;;;4.07;;
9102;SDS011;4587;51.434;6.788;2022-11-18T15:43:50;14.07;;;4.13;;
9102;SDS011;4587;51.434;6.788;2022-11-18T15:46:17;12.97;;;4.07;;
9102;SDS011;4587;51.434;6.788;2022-11-18T15:48:43;11.77;;;3.87;;
9102;SDS011;4587;51.434;6.788;2022-11-18T15:51:09;13.27;;;4.10;;
9102;SDS011;4587;51.434;6.788;2022-11-18T15:53:35;16.17;;;4.27;;
9102;SDS011;4587;51.434;6.788;2022-11-18T15:56:14;10.67;;;4.50;;
9102;SDS011;4587;51.434;6.788;2022-11-18T15:58:43;9.67;;;4.13;;
9102;SDS011;4587;51.434;6.788;2022-11-18T16:01:09;13.27;;;4.50;;
9102;SDS011;4587;51.434;6.788;2022-11-18T16:03:35;10.93;;;4.37;;
9102;SDS011;4587;51.434;6.788;2022-11-18T16:06:00;11.50;;;4.33;;
9102;SDS011;4587;51.434;6.788;2022-11-18T16:08:27;9.27;;;4.30;;
9102;SDS011;4587;51.434;6.788;2022-11-18T16:10:54;10.77;;;4.53;;
9102;SDS011;4587;51.434;6.788;2022-11-18T16:13:39;12.63;;;4.87;;
9102;SDS011;4587;51.434;6.788;2022-11-18T16:16:05;7.10;;;4.20;;
9102;SDS011;4587;51.434;6.788;2022-11-18T16:18:30;12.20;;;4.40;;
9102;SDS011;4587;51.434;6.788;2022-11-18T16:20:57;9.73;;;4.63;;
9102;SDS011;4587;51.434;6.788;2022-11-18T16:23:23;8.93;;;4.70;;
9102;SDS011;4587;51.434;6.788;2022-11-18T16:25:49;9.83;;;4.20;;
9102;SDS011;4587;51.434;6.788;2022-11-18T16:28:15;9.30;;;4.60;;
9102;SDS011;4587;51.434;6.788;2022-11-18T16:30:40;12.47;;;4.17;;
9102;SDS011;4587;51.434;6.788;2022-11-18T16:33:33;12.80;;;4.80;;
9102;SDS011;4587;51.434;6.788;2022-11-18T16:35:59;9.30;;;4.23;;
9102;SDS011;4587;51.434;6.788;2022-11-18T16:38:25;7.80;;;4.03;;
9102;SDS011;4587;51.434;6.788;2022-11-18T16:40:54;8.10;;;4.20;;
9102;SDS011;4587;51.434;6.788;2022-11-18T16:43:20;8.90;;;5.10;;
9102;SDS011;4587;51.434;6.788;2022-11-18T16:45:52;8.10;;;4.57;;
9102;SDS011;4587;51.434;6.788;2022-11-18T16:48:19;12.73;;;4.53;;
9102;SDS011;4587;51.434;6.788;2022-11-18T16:51:16;12.10;;;4.57;;
9102;SDS011;4587;51.434;6.788;2022-11-18T16:53:43;9.60;;;4.43;;
9102;SDS011;4587;51.434;6.788;2022-11-18T16:56:13;8.87;;;4.50;;
9102;SDS011;4587;51.434;6.788;2022-11-18T16:58:38;9.60;;;4.23;;
9102;SDS011;4587;51.434;6.788;2022-11-18T17:01:10;10.57;;;4.43;;
9102;SDS011;4587;51.434;6.788;2022-11-18T17:03:36;7.47;;;4.27;;
9102;SDS011;4587;51.434;6.788;2022-11-18T17:06:02;8.90;;;4.23;;
9102;SDS011;4587;51.434;6.788;2022-11-18T17:08:28;9.97;;;4.50;;
9102;SDS011;4587;51.434;6.788;2022-11-18T17:10:56;9.57;;;4.47;;
9102;SDS011;4587;51.434;6.788;2022-11-18T17:13:27;11.53;;;5.10;;
9102;SDS011;4587;51.434;6.788;2022-11-18T17:15:53;11.53;;;5.40;;
9102;SDS011;4587;51.434;6.788;2022-11-18T17:18:18;8.67;;;4.93;;
9102;SDS011;4587;51.434;6.788;2022-11-18T17:20:44;9.43;;;5.00;;
9102;SDS011;4587;51.434;6.788;2022-11-18T17:23:09;12.57;;;5.13;;
9102;SDS011;4587;51.434;6.788;2022-11-18T17:25:38;11.47;;;5.30;;
9102;SDS011;4587;51.434;6.788;2022-11-18T17:28:04;9.30;;;5.27;;
9102;SDS011;4587;51.434;6.788;2022-11-18T17:30:29;12.10;;;5.83;;
9102;SDS011;4587;51.434;6.788;2022-11-18T17:32:55;12.80;;;6.53;;